Time,TemperatureF,DewpointF,PressureIn,WindDirection,WindDirectionDegrees,WindSpeedMPH,WindSpeedGustMPH,Humidity,HourlyPrecipIn,Conditions,Clouds,dailyrainin,SoftwareType,DateUTC
2013-01-20 00:00:00,43.0,33.2,29.60,NW,315,0.4,4.9,68,0.00,,,0.00,WUHU216HW,2013-01-20 05:00:00,
2013-01-20 00:01:00,43.2,33.4,29.60,NNW,338,2.2,4.9,68,0.00,,,0.00,WUHU216HW,2013-01-20 05:01:00,
2013-01-20 00:02:00,43.2,34.2,29.59,NNW,338,2.0,3.8,70,0.00,,,0.00,WUHU216HW,2013-01-20 05:02:00,
2013-01-20 00:07:00,43.2,33.4,29.59,WSW,248,2.7,6.7,68,0.00,,,0.00,WUHU216HW,2013-01-20 05:07:00,
2013-01-20 00:12:00,43.2,33.0,29.59,SSW,203,4.0,6.7,67,0.00,,,0.00,WUHU216HW,2013-01-20 05:12:00,
2013-01-20 00:17:00,43.2,33.0,29.58,WNW,293,4.3,4.9,67,0.00,,,0.00,WUHU216HW,2013-01-20 05:17:00,
2013-01-20 00:22:00,43.2,33.4,29.58,West,270,2.2,5.1,68,0.00,,,0.00,WUHU216HW,2013-01-20 05:22:00,
2013-01-20 00:27:00,43.2,33.0,29.58,SW,225,4.0,5.1,67,0.00,,,0.00,WUHU216HW,2013-01-20 05:27:00,
2013-01-20 00:32:00,43.0,32.4,29.58,NW,315,3.1,4.0,66,0.00,,,0.00,WUHU216HW,2013-01-20 05:32:00,
2013-01-20 00:37:00,43.0,32.4,29.58,West,270,3.4,4.7,66,0.00,,,0.00,WUHU216HW,2013-01-20 05:37:00,
2013-01-20 00:42:00,43.0,32.1,29.58,NW,315,2.5,4.7,65,0.00,,,0.00,WUHU216HW,2013-01-20 05:42:00,
2013-01-20 00:47:00,43.0,32.1,29.58,West,270,2.7,4.7,65,0.00,,,0.00,WUHU216HW,2013-01-20 05:47:00,
2013-01-20 00:52:00,43.2,32.2,29.58,WNW,293,2.7,4.7,65,0.00,,,0.00,WUHU216HW,2013-01-20 05:52:00,
2013-01-20 00:57:00,43.2,31.4,29.58,NW,315,2.5,5.1,63,0.00,,,0.00,WUHU216HW,2013-01-20 05:57:00,
2013-01-20 01:02:00,42.8,31.1,29.59,West,270,2.0,5.1,63,0.00,,,0.00,WUHU216HW,2013-01-20 06:02:00,
2013-01-20 01:07:00,42.7,29.7,29.59,NW,315,5.4,5.4,60,0.00,,,0.00,WUHU216HW,2013-01-20 06:07:00,
2013-01-20 01:12:00,42.5,27.8,29.59,SW,225,4.0,5.4,56,0.00,,,0.00,WUHU216HW,2013-01-20 06:12:00,
2013-01-20 01:17:00,42.3,27.2,29.60,NW,315,6.3,6.3,55,0.00,,,0.00,WUHU216HW,2013-01-20 06:17:00,
2013-01-20 01:22:00,41.9,25.1,29.60,NNW,338,4.3,6.3,51,0.00,,,0.00,WUHU216HW,2013-01-20 06:22:00,
2013-01-20 01:27:00,41.4,24.1,29.60,NW,315,4.0,5.1,50,0.00,,,0.00,WUHU216HW,2013-01-20 06:27:00,
2013-01-20 01:32:00,41.0,23.2,29.60,NNW,338,5.6,9.2,49,0.00,,,0.00,WUHU216HW,2013-01-20 06:32:00,
2013-01-20 01:37:00,40.7,23.4,29.61,NNW,338,4.9,9.2,50,0.00,,,0.00,WUHU216HW,2013-01-20 06:37:00,
2013-01-20 01:42:00,40.5,22.8,29.62,NW,315,6.9,7.6,49,0.00,,,0.00,WUHU216HW,2013-01-20 06:42:00,
2013-01-20 01:47:00,40.3,22.6,29.62,NE,45,3.4,7.6,49,0.00,,,0.00,WUHU216HW,2013-01-20 06:47:00,
2013-01-20 01:52:00,40.0,22.2,29.62,NW,315,2.9,6.9,49,0.00,,,0.00,WUHU216HW,2013-01-20 06:52:00,
2013-01-20 01:57:00,39.6,22.0,29.62,NW,315,4.0,6.7,49,0.00,,,0.00,WUHU216HW,2013-01-20 06:57:00,
2013-01-20 02:02:00,39.4,21.8,29.62,East,90,2.7,6.7,49,0.00,,,0.00,WUHU216HW,2013-01-20 07:02:00,
2013-01-20 02:07:00,39.1,21.0,29.63,NW,315,4.3,5.4,48,0.00,,,0.00,WUHU216HW,2013-01-20 07:07:00,
2013-01-20 02:12:00,38.9,20.8,29.63,NW,315,1.8,6.9,48,0.00,,,0.00,WUHU216HW,2013-01-20 07:12:00,
2013-01-20 02:17:00,38.5,19.9,29.64,NW,315,5.1,6.9,47,0.00,,,0.00,WUHU216HW,2013-01-20 07:17:00,
2013-01-20 02:22:00,38.3,19.3,29.65,NW,315,2.0,9.8,46,0.00,,,0.00,WUHU216HW,2013-01-20 07:22:00,
2013-01-20 02:27:00,38.2,19.6,29.65,NNW,338,5.4,9.8,47,0.00,,,0.00,WUHU216HW,2013-01-20 07:27:00,
2013-01-20 02:32:00,38.0,18.9,29.66,WNW,293,6.3,8.5,46,0.00,,,0.00,WUHU216HW,2013-01-20 07:32:00,
2013-01-20 02:37:00,37.4,18.5,29.67,SE,135,4.0,8.5,46,0.00,,,0.00,WUHU216HW,2013-01-20 07:37:00,